^^
Saratoga-Weather Station Historical Data
Daily Summary for November 18, 2020 Units:  English    Metric   Both
Daily Weekly Monthly Yearly Custom
  High: Low: Average:
Temperature: 49.8 °F 39.7 °F 44.1 °F
Dew Point: 47.5 °F 38.7 °F 42.8 °F
Humidity: 97% 89% 95%
Wind Speed: 2.9mph 0mph 0.2mph
Wind Gust: 4mph - -
Wind- - ESE
Pressure: 30.3 in 30.1 in -
Precipitation: 0.01 in    
Historical Graphs
 
 
Tabular Data for November 18, 2020
Time Temperature Dew Point Pressure Wind Wind Speed Wind Gust Humidity Rainfall Rate (Hourly) solar
00:01 49.6 °F 46.6 °F 30.3 in Calm     89% 0 in 0 W/m2
00:06 49.5 °F 46.4 °F 30.3 in Calm     89% 0 in 0 W/m2
00:11 49.3 °F 46.2 °F 30.3 in Calm   1 mph 89% 0 in 0 W/m2
00:16 48.9 °F 46 °F 30.3 in Calm     90% 0 in 0 W/m2
00:21 48.7 °F 45.9 °F 30.3 in Calm   1 mph 90% 0 in 0 W/m2
00:26 48.4 °F 45.5 °F 30.3 in Calm     90% 0 in 0 W/m2
00:31 48 °F 45.1 °F 30.3 in Calm     90% 0 in 0 W/m2
00:36 47.8 °F 45.3 °F 30.3 in Calm     91% 0 in 0 W/m2
00:41 47.5 °F 45 °F 30.3 in Calm     91% 0 in 0 W/m2
00:46 47.3 °F 44.8 °F 30.3 in Calm     91% 0 in 0 W/m2
00:51 47.1 °F 45 °F 30.3 in Calm     92% 0 in 0 W/m2
00:57 46.9 °F 44.8 °F 30.3 in Calm     92% 0 in 0 W/m2
01:02 46.8 °F 44.6 °F 30.3 in Calm     92% 0 in 0 W/m2
01:07 46.6 °F 44.4 °F 30.3 in Calm     92% 0 in 0 W/m2
01:12 46.4 °F 44.2 °F 30.3 in Calm     92% 0 in 0 W/m2
01:17 46.2 °F 44.2 °F 30.3 in Calm     93% 0 in 0 W/m2
01:22 46 °F 44.1 °F 30.3 in Calm     93% 0 in 0 W/m2
01:27 45.9 °F 43.7 °F 30.3 in Calm     92% 0 in 0 W/m2
01:32 45.5 °F 43.3 °F 30.3 in Calm     92% 0 in 0 W/m2
01:37 45.3 °F 43.3 °F 30.3 in ESE 2 mph 3 mph 93% 0 in 0 W/m2
01:42 45.1 °F 43.2 °F 30.3 in Calm   1 mph 93% 0 in 0 W/m2
01:47 45.1 °F 43.2 °F 30.3 in Calm   3 mph 93% 0 in 0 W/m2
01:52 45.1 °F 43.5 °F 30.3 in Calm     94% 0 in 0 W/m2
01:57 45 °F 43 °F 30.3 in Calm     93% 0 in 0 W/m2
02:02 44.8 °F 43.2 °F 30.3 in Calm     94% 0 in 0 W/m2
02:07 44.6 °F 43 °F 30.3 in Calm     94% 0 in 0 W/m2
02:12 44.4 °F 42.8 °F 30.3 in Calm     94% 0 in 0 W/m2
02:17 44.2 °F 42.6 °F 30.3 in Calm     94% 0 in 0 W/m2
02:22 44.1 °F 42.4 °F 30.3 in Calm     94% 0 in 0 W/m2
02:27 44.1 °F 42.4 °F 30.3 in Calm     94% 0 in 0 W/m2
02:32 44.1 °F 42.4 °F 30.3 in Calm     94% 0 in 0 W/m2
02:37 43.9 °F 42.3 °F 30.3 in Calm     94% 0 in 0 W/m2
02:42 43.7 °F 42.1 °F 30.3 in Calm     94% 0 in 0 W/m2
02:47 43.5 °F 41.9 °F 30.3 in Calm     94% 0 in 0 W/m2
02:52 43.5 °F 42.3 °F 30.3 in Calm     95% 0 in 0 W/m2
02:57 43.3 °F 42.1 °F 30.3 in Calm     95% 0 in 0 W/m2
03:02 43.3 °F 42.1 °F 30.3 in Calm     95% 0 in 0 W/m2
03:07 43.2 °F 41.9 °F 30.3 in Calm     95% 0 in 0 W/m2
03:12 43 °F 41.7 °F 30.3 in Calm     95% 0 in 0 W/m2
03:17 43 °F 41.7 °F 30.3 in Calm     95% 0 in 0 W/m2
03:22 42.8 °F 41.5 °F 30.3 in Calm     95% 0 in 0 W/m2
03:27 42.6 °F 41.4 °F 30.3 in Calm     95% 0 in 0 W/m2
03:32 42.4 °F 41.2 °F 30.3 in Calm     95% 0 in 0 W/m2
03:37 42.3 °F 41 °F 30.3 in Calm     95% 0 in 0 W/m2
03:42 42.3 °F 41 °F 30.3 in Calm     95% 0 in 0 W/m2
03:47 42.1 °F 40.8 °F 30.3 in Calm     95% 0 in 0 W/m2
03:52 42.1 °F 40.8 °F 30.3 in Calm     95% 0 in 0 W/m2
03:57 42.1 °F 40.8 °F 30.3 in Calm     95% 0 in 0 W/m2
04:02 42.1 °F 40.8 °F 30.3 in ESE 0.9 mph 1 mph 95% 0 in 0 W/m2
04:07 42.3 °F 41 °F 30.3 in Calm     95% 0 in 0 W/m2
04:12 42.3 °F 41 °F 30.3 in Calm     95% 0 in 0 W/m2
04:17 42.3 °F 41 °F 30.3 in Calm     95% 0 in 0 W/m2
04:22 42.3 °F 41 °F 30.3 in Calm     95% 0 in 0 W/m2
04:27 42.1 °F 40.8 °F 30.3 in Calm     95% 0 in 0 W/m2
04:32 42.1 °F 40.8 °F 30.3 in Calm     95% 0 in 0 W/m2
04:37 41.9 °F 40.8 °F 30.3 in Calm     96% 0 in 0 W/m2
04:42 41.7 °F 40.5 °F 30.3 in Calm     95% 0 in 0 W/m2
04:47 41.5 °F 40.3 °F 30.3 in Calm     95% 0 in 0 W/m2
04:52 41.5 °F 40.3 °F 30.3 in Calm     95% 0 in 0 W/m2
04:57 41.4 °F 40.1 °F 30.3 in Calm     95% 0 in 0 W/m2
05:02 41.2 °F 40.1 °F 30.3 in Calm     96% 0 in 0 W/m2
05:07 41.2 °F 40.1 °F 30.3 in Calm     96% 0 in 0 W/m2
05:12 41.2 °F 39.9 °F 30.3 in Calm     95% 0 in 0 W/m2
05:17 41 °F 39.7 °F 30.3 in Calm     95% 0 in 0 W/m2
05:22 40.8 °F 39.7 °F 30.3 in Calm     96% 0 in 0 W/m2
05:27 40.8 °F 39.7 °F 30.3 in Calm     96% 0 in 0 W/m2
05:33 40.8 °F 39.7 °F 30.3 in Calm     96% 0 in 0 W/m2
05:38 40.6 °F 39.6 °F 30.3 in Calm     96% 0 in 0 W/m2
05:43 40.6 °F 39.6 °F 30.3 in Calm     96% 0 in 0 W/m2
05:48 40.6 °F 39.6 °F 30.3 in Calm     96% 0 in 0 W/m2
05:53 40.5 °F 39.4 °F 30.3 in Calm     96% 0 in 0 W/m2
05:58 40.6 °F 39.6 °F 30.3 in Calm     96% 0 in 0 W/m2
06:03 40.6 °F 39.6 °F 30.3 in Calm     96% 0 in 0 W/m2
06:08 40.5 °F 39.4 °F 30.3 in Calm     96% 0 in 0 W/m2
06:13 40.5 °F 39.4 °F 30.3 in Calm     96% 0 in 0 W/m2
06:18 40.5 °F 39.4 °F 30.3 in Calm     96% 0 in 0 W/m2
06:23 40.5 °F 39.4 °F 30.3 in Calm     96% 0 in 0 W/m2
06:28 40.3 °F 39.2 °F 30.3 in Calm     96% 0 in 0 W/m2
06:33 40.1 °F 39 °F 30.3 in Calm     96% 0 in 0 W/m2
06:38 39.9 °F 38.8 °F 30.3 in Calm     96% 0 in 0 W/m2
06:43 39.9 °F 38.8 °F 30.3 in Calm     96% 0 in 0 W/m2
06:48 39.9 °F 38.8 °F 30.3 in Calm     96% 0 in 0 W/m2
06:53 39.9 °F 38.8 °F 30.3 in Calm     96% 0 in 0 W/m2
06:58 39.9 °F 38.8 °F 30.3 in Calm     96% 0 in 0 W/m2
07:03 39.7 °F 38.7 °F 30.3 in Calm     96% 0 in 0 W/m2
07:08 39.9 °F 38.8 °F 30.3 in ESE 0.9 mph 1 mph 96% 0 in 0 W/m2
07:13 39.9 °F 38.8 °F 30.3 in Calm     96% 0 in 0 W/m2
07:18 39.9 °F 38.8 °F 30.3 in Calm     96% 0 in 0 W/m2
07:23 40.1 °F 39 °F 30.3 in Calm     96% 0 in 0 W/m2
07:28 40.1 °F 39 °F 30.3 in Calm     96% 0 in 0 W/m2
07:33 40.1 °F 39 °F 30.3 in ESE 0.9 mph 2 mph 96% 0 in 0 W/m2
07:38 40.3 °F 39.2 °F 30.3 in East 0.9 mph 2 mph 96% 0 in 0 W/m2
07:43 40.3 °F 39.2 °F 30.3 in East 0.9 mph 2 mph 96% 0 in 0 W/m2
07:48 40.3 °F 39.2 °F 30.3 in East 0.9 mph 1 mph 96% 0 in 0 W/m2
07:53 40.5 °F 39.4 °F 30.3 in Calm     96% 0 in 0 W/m2
07:58 40.5 °F 39.7 °F 30.3 in Calm   1 mph 97% 0 in 0 W/m2
08:03 40.6 °F 39.9 °F 30.3 in Calm     97% 0 in 5 W/m2
08:08 40.6 °F 39.9 °F 30.3 in Calm   1 mph 97% 0 in 7 W/m2
08:13 40.8 °F 40.1 °F 30.3 in Calm   1 mph 97% 0 in 7 W/m2
08:18 40.8 °F 40.1 °F 30.3 in Calm     97% 0 in 11 W/m2
08:23 41.2 °F 40.5 °F 30.3 in Calm   2 mph 97% 0 in 19 W/m2
08:28 41.4 °F 40.6 °F 30.3 in Calm     97% 0 in 18 W/m2
08:33 41.4 °F 40.6 °F 30.3 in East 0.9 mph 1 mph 97% 0 in 21 W/m2
08:38 41.4 °F 40.6 °F 30.3 in ESE 0.9 mph 2 mph 97% 0 in 25 W/m2
08:43 41.4 °F 40.6 °F 30.3 in Calm   1 mph 97% 0 in 26 W/m2
08:48 41.5 °F 40.8 °F 30.3 in Calm   1 mph 97% 0 in 26 W/m2
08:53 41.4 °F 40.6 °F 30.3 in Calm   2 mph 97% 0 in 33 W/m2
08:58 41.4 °F 40.6 °F 30.3 in Calm   1 mph 97% 0 in 37 W/m2
09:03 41.4 °F 40.6 °F 30.3 in ESE 0.9 mph 2 mph 97% 0 in 33 W/m2
09:08 41.4 °F 40.6 °F 30.3 in SE 0.9 mph 3 mph 97% 0 in 37 W/m2
09:13 41.4 °F 40.6 °F 30.3 in ESE 2 mph 3 mph 97% 0 in 46 W/m2
09:18 41.5 °F 40.8 °F 30.3 in Calm   1 mph 97% 0 in 49 W/m2
09:23 41.5 °F 40.8 °F 30.3 in Calm   2 mph 97% 0 in 58 W/m2
09:28 41.5 °F 40.8 °F 30.3 in East 2 mph 3 mph 97% 0 in 51 W/m2
09:33 41.5 °F 40.8 °F 30.3 in Calm   1 mph 97% 0 in 46 W/m2
09:38 41.5 °F 40.8 °F 30.3 in ESE 0.9 mph 3 mph 97% 0 in 40 W/m2
09:43 41.5 °F 40.8 °F 30.3 in East 2 mph 2 mph 97% 0 in 53 W/m2
09:48 41.7 °F 41 °F 30.3 in East 0.9 mph 1 mph 97% 0 in 62 W/m2
09:53 41.9 °F 41.2 °F 30.3 in Calm   1 mph 97% 0 in 62 W/m2
09:58 42.1 °F 41.4 °F 30.3 in ESE 2.9 mph 3 mph 97% 0 in 77 W/m2
10:03 42.3 °F 41.5 °F 30.3 in East 2 mph 2 mph 97% 0 in 65 W/m2
10:08 42.3 °F 41.5 °F 30.3 in Calm   3 mph 97% 0 in 76 W/m2
10:13 42.3 °F 41.5 °F 30.3 in ESE 0.9 mph 2 mph 97% 0 in 74 W/m2
10:18 42.3 °F 41.5 °F 30.3 in East 2 mph 2 mph 97% 0 in 72 W/m2
10:23 42.4 °F 41.7 °F 30.3 in ENE 0.9 mph 3 mph 97% 0 in 83 W/m2
10:28 42.4 °F 41.7 °F 30.3 in NE 0.9 mph 1 mph 97% 0 in 77 W/m2
10:33 42.6 °F 41.9 °F 30.3 in Calm   1 mph 97% 0 in 69 W/m2
10:38 42.6 °F 41.9 °F 30.3 in Calm   2 mph 97% 0 in 69 W/m2
10:43 42.8 °F 42.1 °F 30.3 in Calm   1 mph 97% 0 in 72 W/m2
10:48 42.8 °F 42.1 °F 30.3 in Calm   1 mph 97% 0 in 91 W/m2
10:53 43 °F 42.3 °F 30.3 in East 0.9 mph 2 mph 97% 0 in 91 W/m2
10:58 42.8 °F 42.1 °F 30.3 in Calm   1 mph 97% 0 in 76 W/m2
11:03 43 °F 42.3 °F 30.3 in Calm     97% 0 in 74 W/m2
11:08 43 °F 42.3 °F 30.3 in Calm   1 mph 97% 0 in 97 W/m2
11:13 43 °F 42.3 °F 30.3 in Calm   2 mph 97% 0 in 127 W/m2
11:18 43.2 °F 42.4 °F 30.3 in East 2 mph 2 mph 97% 0 in 111 W/m2
11:23 43.3 °F 42.6 °F 30.3 in East 0.9 mph 1 mph 97% 0 in 139 W/m2
11:28 43.3 °F 42.6 °F 30.3 in ENE 0.9 mph 1 mph 97% 0 in 123 W/m2
11:33 43.5 °F 42.8 °F 30.3 in ENE 0.9 mph 2 mph 97% 0 in 121 W/m2
11:38 43.7 °F 43 °F 30.3 in Calm   1 mph 97% 0 in 134 W/m2
11:43 43.9 °F 43.2 °F 30.3 in Calm   4 mph 97% 0 in 118 W/m2
11:48 43.7 °F 43 °F 30.3 in Calm   1 mph 97% 0 in 153 W/m2
11:53 43.7 °F 43 °F 30.3 in Calm   4 mph 97% 0 in 135 W/m2
11:58 43.9 °F 43.2 °F 30.3 in ESE 0.9 mph 3 mph 97% 0 in 141 W/m2
12:03 44.1 °F 43.3 °F 30.3 in Calm   4 mph 97% 0 in 153 W/m2
12:08 44.2 °F 43.5 °F 30.3 in Calm     97% 0 in 58 W/m2
12:13 44.4 °F 43.7 °F 30.3 in East 0.9 mph 2 mph 97% 0 in 44 W/m2
12:18 44.4 °F 43.7 °F 30.3 in Calm   2 mph 97% 0 in 58 W/m2
12:23 44.6 °F 43.9 °F 30.3 in East 2 mph 2 mph 97% 0 in 37 W/m2
12:28 44.8 °F 44.1 °F 30.3 in NE 0.9 mph 4 mph 97% 0 in 39 W/m2
12:33 45 °F 44.2 °F 30.3 in Calm   2 mph 97% 0 in 39 W/m2
12:38 45.1 °F 44.4 °F 30.3 in ENE 2.9 mph 3 mph 97% 0 in 49 W/m2
12:43 45.1 °F 44.4 °F 30.2 in ENE 0.9 mph 1 mph 97% 0 in 37 W/m2
12:48 45.3 °F 44.6 °F 30.2 in Calm   1 mph 97% 0 in 44 W/m2
12:53 45.7 °F 45 °F 30.2 in NE 0.9 mph 3 mph 97% 0 in 33 W/m2
12:58 45.9 °F 45.1 °F 30.2 in ENE 2 mph 3 mph 97% 0 in 33 W/m2
13:03 46 °F 45.3 °F 30.2 in Calm   1 mph 97% 0 in 32 W/m2
13:08 46.2 °F 45.5 °F 30.2 in SE 0.9 mph 3 mph 97% 0 in 33 W/m2
13:13 46.6 °F 45.9 °F 30.2 in Calm     97% 0 in 35 W/m2
13:18 46.8 °F 46 °F 30.2 in ESE 0.9 mph 2 mph 97% 0 in 33 W/m2
13:23 46.9 °F 46.2 °F 30.2 in ENE 0.9 mph 3 mph 97% 0 in 30 W/m2
13:28 47.1 °F 46.4 °F 30.2 in ENE 0.9 mph 3 mph 97% 0 in 37 W/m2
13:33 47.7 °F 46.9 °F 30.2 in Calm     97% 0 in 42 W/m2
13:38 47.8 °F 46.9 °F 30.2 in ESE 0.9 mph 2 mph 97% 0 in 39 W/m2
13:43 48 °F 47.1 °F 30.2 in Calm     97% 0 in 30 W/m2
13:48 48 °F 46.9 °F 30.2 in Calm   1 mph 96% 0 in 28 W/m2
13:53 48.2 °F 47.1 °F 30.2 in SE 0.9 mph 4 mph 96% 0 in 51 W/m2
13:58 48.6 °F 47.5 °F 30.2 in East 0.9 mph 4 mph 96% 0 in 32 W/m2
14:03 48.7 °F 47.3 °F 30.2 in Calm   2 mph 95% 0 in 28 W/m2
14:08 49.1 °F 47.5 °F 30.2 in SE 2 mph 3 mph 94% 0 in 28 W/m2
14:13 49.5 °F 47.5 °F 30.2 in ESE 0.9 mph 2 mph 93% 0 in 28 W/m2
14:18 49.6 °F 47.5 °F 30.2 in ESE 2 mph 3 mph 92% 0 in 26 W/m2
14:23 49.6 °F 47.5 °F 30.2 in Calm   1 mph 92% 0 in 26 W/m2
14:28 49.6 °F 47.1 °F 30.2 in Calm   1 mph 91% 0 in 26 W/m2
14:33 49.8 °F 47.3 °F 30.2 in SE 2 mph 2 mph 91% 0 in 25 W/m2
14:38 49.8 °F 46.9 °F 30.2 in Calm   1 mph 90% 0 in 25 W/m2
14:43 49.8 °F 46.9 °F 30.2 in Calm   1 mph 90% 0 in 23 W/m2
14:48 49.8 °F 46.9 °F 30.2 in SE 0.9 mph 1 mph 90% 0 in 23 W/m2
14:53 49.6 °F 46.8 °F 30.2 in Calm     90% 0 in 23 W/m2
14:58 49.6 °F 46.8 °F 30.2 in ENE 0.9 mph 3 mph 90% 0 in 23 W/m2
15:03 49.6 °F 46.8 °F 30.2 in Calm   1 mph 90% 0 in 21 W/m2
15:08 49.6 °F 46.8 °F 30.2 in Calm   3 mph 90% 0 in 21 W/m2
15:13 49.6 °F 46.8 °F 30.2 in Calm     90% 0 in 21 W/m2
15:18 49.6 °F 46.8 °F 30.2 in Calm     90% 0 in 21 W/m2
15:23 49.5 °F 46.6 °F 30.2 in Calm     90% 0 in 21 W/m2
15:28 49.5 °F 46.6 °F 30.2 in Calm     90% 0 in 19 W/m2
15:34 49.3 °F 46.4 °F 30.2 in Calm     90% 0 in 19 W/m2
15:39 49.1 °F 46.2 °F 30.2 in Calm     90% 0 in 19 W/m2
15:44 48.9 °F 46 °F 30.2 in Calm     90% 0 in 18 W/m2
15:49 48.9 °F 46.4 °F 30.2 in Calm     91% 0 in 18 W/m2
15:54 48.9 °F 46.4 °F 30.2 in Calm     91% 0 in 16 W/m2
15:59 48.7 °F 46.2 °F 30.2 in Calm   1 mph 91% 0 in 16 W/m2
16:04 48.7 °F 46.2 °F 30.2 in Calm     91% 0 in 16 W/m2
16:09 48.6 °F 46 °F 30.2 in SSE 0.9 mph 1 mph 91% 0 in 14 W/m2
16:14 48.6 °F 46 °F 30.2 in Calm     91% 0 in 14 W/m2
16:19 48.4 °F 45.9 °F 30.2 in Calm     91% 0 in 12 W/m2
16:24 48 °F 45.5 °F 30.2 in Calm     91% 0 in 12 W/m2
16:29 48 °F 45.9 °F 30.2 in Calm     92% 0 in 11 W/m2
16:34 47.8 °F 45.7 °F 30.2 in Calm     92% 0 in 9 W/m2
16:39 47.7 °F 45.5 °F 30.2 in Calm     92% 0 in 7 W/m2
16:44 47.7 °F 45.5 °F 30.2 in Calm   1 mph 92% 0 in 5 W/m2
16:49 47.5 °F 45.3 °F 30.2 in Calm   2 mph 92% 0 in 0 W/m2
16:54 47.3 °F 45.3 °F 30.2 in Calm     93% 0 in 0 W/m2
16:59 47.1 °F 45.1 °F 30.2 in SSE 0.9 mph 2 mph 93% 0 in 0 W/m2
17:04 47.1 °F 45.1 °F 30.2 in Calm   1 mph 93% 0 in 0 W/m2
17:09 46.9 °F 45 °F 30.2 in Calm     93% 0 in 0 W/m2
17:14 46.9 °F 45 °F 30.2 in Calm   1 mph 93% 0 in 0 W/m2
17:19 46.8 °F 44.8 °F 30.2 in Calm     93% 0 in 0 W/m2
17:24 46.8 °F 44.8 °F 30.2 in Calm     93% 0 in 0 W/m2
17:29 46.6 °F 45 °F 30.2 in Calm     94% 0 in 0 W/m2
17:34 46.4 °F 44.8 °F 30.2 in Calm     94% 0 in 0 W/m2
17:39 46.2 °F 44.6 °F 30.2 in Calm     94% 0 in 0 W/m2
17:44 46.2 °F 44.6 °F 30.2 in Calm     94% 0 in 0 W/m2
17:49 46 °F 44.4 °F 30.2 in Calm     94% 0 in 0 W/m2
17:54 46 °F 44.4 °F 30.2 in Calm     94% 0 in 0 W/m2
17:59 46 °F 44.4 °F 30.2 in Calm     94% 0 in 0 W/m2
18:04 45.9 °F 44.2 °F 30.2 in Calm     94% 0 in 0 W/m2
18:09 45.9 °F 44.2 °F 30.2 in Calm     94% 0 in 0 W/m2
18:14 45.7 °F 44.4 °F 30.2 in Calm     95% 0 in 0 W/m2
18:19 45.7 °F 44.4 °F 30.2 in Calm     95% 0 in 0 W/m2
18:24 45.7 °F 44.4 °F 30.2 in Calm     95% 0 in 0 W/m2
18:29 45.5 °F 44.2 °F 30.2 in Calm     95% 0 in 0 W/m2
18:34 45.3 °F 44.1 °F 30.2 in Calm     95% 0 in 0 W/m2
18:39 45.1 °F 43.9 °F 30.2 in Calm     95% 0 in 0 W/m2
18:44 45 °F 43.7 °F 30.2 in Calm     95% 0 in 0 W/m2
18:49 45 °F 43.7 °F 30.2 in Calm     95% 0 in 0 W/m2
18:54 44.8 °F 43.5 °F 30.2 in Calm     95% 0 in 0 W/m2
18:59 44.6 °F 43.3 °F 30.2 in Calm     95% 0 in 0 W/m2
19:04 44.4 °F 43.2 °F 30.2 in Calm     95% 0 in 0 W/m2
19:09 44.2 °F 43 °F 30.2 in Calm     95% 0 in 0 W/m2
19:14 44.2 °F 43 °F 30.2 in Calm     95% 0 in 0 W/m2
19:19 44.2 °F 43 °F 30.2 in Calm     95% 0 in 0 W/m2
19:24 44.2 °F 43 °F 30.2 in Calm     95% 0 in 0 W/m2
19:29 44.1 °F 42.8 °F 30.2 in Calm     95% 0 in 0 W/m2
19:34 44.1 °F 42.8 °F 30.2 in Calm     95% 0 in 0 W/m2
19:39 43.9 °F 42.6 °F 30.2 in Calm     95% 0 in 0 W/m2
19:44 43.9 °F 42.6 °F 30.2 in Calm     95% 0 in 0 W/m2
19:49 43.9 °F 42.6 °F 30.2 in Calm     95% 0 in 0 W/m2
19:54 43.9 °F 42.8 °F 30.2 in Calm     96% 0 in 0 W/m2
19:59 44.1 °F 43 °F 30.2 in Calm   2 mph 96% 0 in 0 W/m2
20:04 44.1 °F 43 °F 30.2 in Calm     96% 0 in 0 W/m2
20:09 44.2 °F 43.2 °F 30.2 in Calm     96% 0 in 0 W/m2
20:14 44.1 °F 43 °F 30.2 in Calm     96% 0 in 0 W/m2
20:19 43.9 °F 42.8 °F 30.2 in Calm     96% 0 in 0 W/m2
20:24 43.7 °F 42.6 °F 30.2 in Calm     96% 0 in 0 W/m2
20:29 43.5 °F 42.4 °F 30.2 in Calm     96% 0 in 0 W/m2
20:34 43.3 °F 42.1 °F 30.2 in Calm     95% 0 in 0 W/m2
20:39 43.3 °F 42.1 °F 30.2 in Calm     95% 0 in 0 W/m2
20:44 43.2 °F 42.1 °F 30.2 in Calm     96% 0 in 0 W/m2
20:49 43.2 °F 42.1 °F 30.2 in Calm     96% 0 in 0 W/m2
20:54 43.2 °F 42.1 °F 30.2 in Calm     96% 0 in 0 W/m2
20:59 43.2 °F 42.1 °F 30.2 in Calm     96% 0 in 0 W/m2
21:05 43.2 °F 42.1 °F 30.2 in Calm     96% 0 in 0 W/m2
21:10 43 °F 41.9 °F 30.2 in Calm     96% 0 in 0 W/m2
21:15 42.8 °F 41.7 °F 30.2 in Calm     96% 0 in 0 W/m2
21:20 42.8 °F 41.7 °F 30.2 in Calm     96% 0 in 0 W/m2
21:25 42.8 °F 41.7 °F 30.2 in Calm     96% 0 in 0 W/m2
21:30 42.6 °F 41.5 °F 30.2 in Calm     96% 0 in 0 W/m2
21:35 42.6 °F 41.5 °F 30.2 in Calm     96% 0 in 0 W/m2
21:40 42.4 °F 41.4 °F 30.2 in Calm     96% 0 in 0 W/m2
21:45 42.4 °F 41.4 °F 30.2 in Calm     96% 0 in 0 W/m2
21:50 42.6 °F 41.5 °F 30.2 in Calm   1 mph 96% 0 in 0 W/m2
21:55 42.4 °F 41.4 °F 30.2 in Calm     96% 0 in 0 W/m2
22:00 42.4 °F 41.4 °F 30.2 in Calm     96% 0 in 0 W/m2
22:05 42.4 °F 41.4 °F 30.2 in Calm     96% 0 in 0 W/m2
22:10 42.4 °F 41.4 °F 30.2 in Calm     96% 0 in 0 W/m2
22:15 42.4 °F 41.4 °F 30.2 in Calm   1 mph 96% 0 in 0 W/m2
22:20 42.4 °F 41.4 °F 30.2 in Calm   2 mph 96% 0 in 0 W/m2
22:25 42.4 °F 41.4 °F 30.2 in Calm     96% 0 in 0 W/m2
22:30 42.4 °F 41.4 °F 30.2 in Calm   2 mph 96% 0 in 0 W/m2
22:35 42.4 °F 41.4 °F 30.2 in Calm     96% 0 in 0 W/m2
22:40 42.4 °F 41.4 °F 30.2 in Calm   1 mph 96% 0 in 0 W/m2
22:45 42.3 °F 41.2 °F 30.2 in Calm     96% 0 in 0 W/m2
22:50 42.3 °F 41.2 °F 30.2 in Calm     96% 0.01 in 0 W/m2
22:55 42.3 °F 41.2 °F 30.1 in Calm   1 mph 96% 0.01 in 0 W/m2
23:00 42.3 °F 41.2 °F 30.1 in SE 0.9 mph 2 mph 96% 0.01 in 0 W/m2
23:05 42.3 °F 41.2 °F 30.1 in SSW 0.9 mph 1 mph 96% 0.01 in 0 W/m2
23:10 42.1 °F 41 °F 30.2 in Calm   1 mph 96% 0.01 in 0 W/m2
23:15 41.9 °F 40.8 °F 30.1 in Calm   2 mph 96% 0.01 in 0 W/m2
23:20 41.7 °F 40.6 °F 30.1 in Calm   1 mph 96% 0.01 in 0 W/m2
23:25 41.7 °F 40.6 °F 30.1 in SSW 0.9 mph 1 mph 96% 0.01 in 0 W/m2
23:30 41.9 °F 40.8 °F 30.1 in Calm   2 mph 96% 0.01 in 0 W/m2
23:35 42.1 °F 41 °F 30.1 in Calm     96% 0.01 in 0 W/m2
23:40 42.1 °F 41 °F 30.2 in Calm   1 mph 96% 0.01 in 0 W/m2
23:45 42.3 °F 41.2 °F 30.2 in Calm   1 mph 96% 0.01 in 0 W/m2
23:50 42.4 °F 41.7 °F 30.1 in SE 2 mph 3 mph 97% 0 in 0 W/m2
23:55 43 °F 42.3 °F 30.1 in Calm   2 mph 97% 0 in 0 W/m2
Juneau County Weather
Compliments of Weather Underground - 4 mb